Anacoco, Louisiana
Current Conditions -  °F | °C
As of 8:56 PM on Sunday 23 Nov 2014 (Local Time) from KAQV Reporting Station
Clear Clear  
Wind Chill: 62°   Ceiling: Unl
Heat Index: 62°   Visibility: 10mi
Dew Point: 58°   Wind: 6mph
Humidity: 86%   Direction: NA
Pressure: 29.6"   Gusts: NA
Location:  31.25°N, 93.34°W
Report Text: KAQV 240256Z AUTO VRB05KT 10SM CLR 17/14 A2960 RMK AO2 SLP022 6//// T01670144 51024 PNO $
Loading
Personal Weather Stations






























Interactive Weather Map New forecast layout! Learn more

10-Day Weather Forecast

Advertisements
Track Severe Weather on mobile